sensor_id;sensor_type;location;lat;lon;timestamp;temperature;humidity
6363;DHT22;3214;49.932;8.494;2024-01-30T00:01:06;2.80;99.90
6363;DHT22;3214;49.932;8.494;2024-01-30T00:04:11;2.70;99.90
6363;DHT22;3214;49.932;8.494;2024-01-30T00:06:56;2.80;99.90
6363;DHT22;3214;49.932;8.494;2024-01-30T00:09:32;2.80;99.90
6363;DHT22;3214;49.932;8.494;2024-01-30T00:12:10;2.70;99.90
6363;DHT22;3214;49.932;8.494;2024-01-30T00:14:50;2.70;99.90
6363;DHT22;3214;49.932;8.494;2024-01-30T00:17:42;2.80;99.90
6363;DHT22;3214;49.932;8.494;2024-01-30T00:20:29;2.80;99.90
6363;DHT22;3214;49.932;8.494;2024-01-30T00:23:06;2.80;99.90
6363;DHT22;3214;49.932;8.494;2024-01-30T00:25:44;2.80;99.90
6363;DHT22;3214;49.932;8.494;2024-01-30T00:28:25;2.80;99.90
6363;DHT22;3214;49.932;8.494;2024-01-30T00:31:08;2.90;99.90
6363;DHT22;3214;49.932;8.494;2024-01-30T00:33:51;2.90;99.90
6363;DHT22;3214;49.932;8.494;2024-01-30T00:36:36;2.90;99.90
6363;DHT22;3214;49.932;8.494;2024-01-30T00:39:23;2.90;99.90
6363;DHT22;3214;49.932;8.494;2024-01-30T00:41:53;2.90;99.90
6363;DHT22;3214;49.932;8.494;2024-01-30T00:44:30;2.70;99.90
6363;DHT22;3214;49.932;8.494;2024-01-30T00:47:08;2.50;99.90
6363;DHT22;3214;49.932;8.494;2024-01-30T00:49:58;2.30;99.90
6363;DHT22;3214;49.932;8.494;2024-01-30T00:55:14;2.10;99.90
6363;DHT22;3214;49.932;8.494;2024-01-30T00:57:57;2.10;99.90
6363;DHT22;3214;49.932;8.494;2024-01-30T01:00:48;2.20;99.90
6363;DHT22;3214;49.932;8.494;2024-01-30T01:06:25;2.20;99.90
6363;DHT22;3214;49.932;8.494;2024-01-30T01:09:18;2.10;99.90
6363;DHT22;3214;49.932;8.494;2024-01-30T01:11:56;2.30;99.90
6363;DHT22;3214;49.932;8.494;2024-01-30T01:14:45;2.30;99.90
6363;DHT22;3214;49.932;8.494;2024-01-30T01:17:20;2.40;99.90
6363;DHT22;3214;49.932;8.494;2024-01-30T01:19:58;2.30;99.90
6363;DHT22;3214;49.932;8.494;2024-01-30T01:25:35;2.30;99.90
6363;DHT22;3214;49.932;8.494;2024-01-30T01:28:10;2.30;99.90
6363;DHT22;3214;49.932;8.494;2024-01-30T01:30:54;2.30;99.90
6363;DHT22;3214;49.932;8.494;2024-01-30T01:33:30;2.30;99.90
6363;DHT22;3214;49.932;8.494;2024-01-30T01:36:16;2.30;99.90
6363;DHT22;3214;49.932;8.494;2024-01-30T01:38:58;2.20;99.90
6363;DHT22;3214;49.932;8.494;2024-01-30T01:41:46;2.20;99.90
6363;DHT22;3214;49.932;8.494;2024-01-30T01:44:19;2.20;99.90
6363;DHT22;3214;49.932;8.494;2024-01-30T01:46:54;2.20;99.90
6363;DHT22;3214;49.932;8.494;2024-01-30T01:52:18;2.10;99.90
6363;DHT22;3214;49.932;8.494;2024-01-30T01:54:50;2.10;99.90
6363;DHT22;3214;49.932;8.494;2024-01-30T01:57:33;2.20;99.90
6363;DHT22;3214;49.932;8.494;2024-01-30T02:00:22;2.30;99.90
6363;DHT22;3214;49.932;8.494;2024-01-30T02:02:58;2.30;99.90
6363;DHT22;3214;49.932;8.494;2024-01-30T02:05:32;2.30;99.90
6363;DHT22;3214;49.932;8.494;2024-01-30T02:08:16;2.30;99.90
6363;DHT22;3214;49.932;8.494;2024-01-30T02:11:00;2.30;99.90
6363;DHT22;3214;49.932;8.494;2024-01-30T02:13:36;2.20;99.90
6363;DHT22;3214;49.932;8.494;2024-01-30T02:16:25;2.30;99.90
6363;DHT22;3214;49.932;8.494;2024-01-30T02:19:03;2.20;99.90
6363;DHT22;3214;49.932;8.494;2024-01-30T02:21:48;2.10;99.90
6363;DHT22;3214;49.932;8.494;2024-01-30T02:24:37;2.10;99.90
6363;DHT22;3214;49.932;8.494;2024-01-30T02:27:20;2.10;99.90
6363;DHT22;3214;49.932;8.494;2024-01-30T02:30:07;2.10;99.90
6363;DHT22;3214;49.932;8.494;2024-01-30T02:32:40;2.00;99.90
6363;DHT22;3214;49.932;8.494;2024-01-30T02:35:09;2.10;99.90
6363;DHT22;3214;49.932;8.494;2024-01-30T02:37:57;2.20;99.90
6363;DHT22;3214;49.932;8.494;2024-01-30T02:40:39;2.20;99.90
6363;DHT22;3214;49.932;8.494;2024-01-30T02:43:11;2.10;99.90
6363;DHT22;3214;49.932;8.494;2024-01-30T02:45:54;2.10;99.90
6363;DHT22;3214;49.932;8.494;2024-01-30T02:48:29;2.20;99.90
6363;DHT22;3214;49.932;8.494;2024-01-30T02:51:12;2.20;99.90
6363;DHT22;3214;49.932;8.494;2024-01-30T02:53:52;2.10;99.90
6363;DHT22;3214;49.932;8.494;2024-01-30T02:56:23;2.00;99.90
6363;DHT22;3214;49.932;8.494;2024-01-30T03:02:03;1.90;99.90
6363;DHT22;3214;49.932;8.494;2024-01-30T03:04:46;1.90;99.90
6363;DHT22;3214;49.932;8.494;2024-01-30T03:07:45;1.80;99.90
6363;DHT22;3214;49.932;8.494;2024-01-30T03:10:26;1.80;99.90
6363;DHT22;3214;49.932;8.494;2024-01-30T03:13:03;1.70;99.90
6363;DHT22;3214;49.932;8.494;2024-01-30T03:15:47;1.80;99.90
6363;DHT22;3214;49.932;8.494;2024-01-30T03:18:33;1.80;99.90
6363;DHT22;3214;49.932;8.494;2024-01-30T03:21:10;1.90;99.90
6363;DHT22;3214;49.932;8.494;2024-01-30T03:23:42;1.80;99.90
6363;DHT22;3214;49.932;8.494;2024-01-30T03:26:20;1.80;99.90
6363;DHT22;3214;49.932;8.494;2024-01-30T03:28:53;1.70;99.90
6363;DHT22;3214;49.932;8.494;2024-01-30T03:32:01;1.60;99.90
6363;DHT22;3214;49.932;8.494;2024-01-30T03:34:39;1.60;99.90
6363;DHT22;3214;49.932;8.494;2024-01-30T03:37:18;1.60;99.90
6363;DHT22;3214;49.932;8.494;2024-01-30T03:39:55;1.60;99.90
6363;DHT22;3214;49.932;8.494;2024-01-30T03:42:27;1.60;99.90
6363;DHT22;3214;49.932;8.494;2024-01-30T03:45:17;1.60;99.90
6363;DHT22;3214;49.932;8.494;2024-01-30T03:47:58;1.60;99.90
6363;DHT22;3214;49.932;8.494;2024-01-30T03:50:32;1.70;99.90
6363;DHT22;3214;49.932;8.494;2024-01-30T03:53:27;1.60;99.90
6363;DHT22;3214;49.932;8.494;2024-01-30T03:56:08;1.70;99.90
6363;DHT22;3214;49.932;8.494;2024-01-30T03:58:43;1.60;99.90
6363;DHT22;3214;49.932;8.494;2024-01-30T04:01:16;1.60;99.90
6363;DHT22;3214;49.932;8.494;2024-01-30T04:03:55;1.60;99.90
6363;DHT22;3214;49.932;8.494;2024-01-30T04:06:59;1.60;99.90
6363;DHT22;3214;49.932;8.494;2024-01-30T04:09:37;1.60;99.90
6363;DHT22;3214;49.932;8.494;2024-01-30T04:12:12;1.60;99.90
6363;DHT22;3214;49.932;8.494;2024-01-30T04:14:52;1.50;99.90
6363;DHT22;3214;49.932;8.494;2024-01-30T04:17:29;1.60;99.90
6363;DHT22;3214;49.932;8.494;2024-01-30T04:20:08;1.50;99.90
6363;DHT22;3214;49.932;8.494;2024-01-30T04:22:42;1.50;99.90
6363;DHT22;3214;49.932;8.494;2024-01-30T04:25:25;1.60;99.90
6363;DHT22;3214;49.932;8.494;2024-01-30T04:27:57;1.60;99.90
6363;DHT22;3214;49.932;8.494;2024-01-30T04:30:41;1.60;99.90
6363;DHT22;3214;49.932;8.494;2024-01-30T04:33:19;1.60;99.90
6363;DHT22;3214;49.932;8.494;2024-01-30T04:35:52;1.60;99.90
6363;DHT22;3214;49.932;8.494;2024-01-30T04:38:42;1.60;99.90
6363;DHT22;3214;49.932;8.494;2024-01-30T04:44:16;1.70;99.90
6363;DHT22;3214;49.932;8.494;2024-01-30T04:47:35;1.80;99.90
6363;DHT22;3214;49.932;8.494;2024-01-30T04:50:18;1.80;99.90
6363;DHT22;3214;49.932;8.494;2024-01-30T04:52:54;1.70;99.90
6363;DHT22;3214;49.932;8.494;2024-01-30T04:55:30;1.60;99.90
6363;DHT22;3214;49.932;8.494;2024-01-30T05:00:53;1.50;99.90
6363;DHT22;3214;49.932;8.494;2024-01-30T05:03:33;1.40;99.90
6363;DHT22;3214;49.932;8.494;2024-01-30T05:06:02;1.30;99.90
6363;DHT22;3214;49.932;8.494;2024-01-30T05:08:40;1.30;99.90
6363;DHT22;3214;49.932;8.494;2024-01-30T05:11:07;1.30;99.90
6363;DHT22;3214;49.932;8.494;2024-01-30T05:13:35;1.40;99.90
6363;DHT22;3214;49.932;8.494;2024-01-30T05:16:10;1.50;99.90
6363;DHT22;3214;49.932;8.494;2024-01-30T05:18:53;1.40;99.90
6363;DHT22;3214;49.932;8.494;2024-01-30T05:21:30;1.50;99.90
6363;DHT22;3214;49.932;8.494;2024-01-30T05:24:06;1.50;99.90
6363;DHT22;3214;49.932;8.494;2024-01-30T05:26:49;1.50;99.90
6363;DHT22;3214;49.932;8.494;2024-01-30T05:29:23;1.50;99.90
6363;DHT22;3214;49.932;8.494;2024-01-30T05:32:01;1.50;99.90
6363;DHT22;3214;49.932;8.494;2024-01-30T05:34:43;1.50;99.90
6363;DHT22;3214;49.932;8.494;2024-01-30T05:37:16;1.50;99.90
6363;DHT22;3214;49.932;8.494;2024-01-30T05:39:45;1.50;99.90
6363;DHT22;3214;49.932;8.494;2024-01-30T05:42:37;1.50;99.90
6363;DHT22;3214;49.932;8.494;2024-01-30T05:45:33;1.50;99.90
6363;DHT22;3214;49.932;8.494;2024-01-30T05:48:16;1.50;99.90
6363;DHT22;3214;49.932;8.494;2024-01-30T05:50:55;1.60;99.90
6363;DHT22;3214;49.932;8.494;2024-01-30T05:53:44;1.60;99.90
6363;DHT22;3214;49.932;8.494;2024-01-30T05:56:20;1.50;99.90
6363;DHT22;3214;49.932;8.494;2024-01-30T05:58:56;1.40;99.90
6363;DHT22;3214;49.932;8.494;2024-01-30T06:06:03;1.30;99.90
6363;DHT22;3214;49.932;8.494;2024-01-30T06:09:01;1.30;99.90
6363;DHT22;3214;49.932;8.494;2024-01-30T06:15:10;1.30;99.90
6363;DHT22;3214;49.932;8.494;2024-01-30T06:17:53;1.40;99.90
6363;DHT22;3214;49.932;8.494;2024-01-30T06:20:45;1.60;99.90
6363;DHT22;3214;49.932;8.494;2024-01-30T06:31:03;1.50;99.90
6363;DHT22;3214;49.932;8.494;2024-01-30T06:33:33;1.50;99.90
6363;DHT22;3214;49.932;8.494;2024-01-30T06:36:12;1.50;99.90
6363;DHT22;3214;49.932;8.494;2024-01-30T06:39:52;1.40;99.90
6363;DHT22;3214;49.932;8.494;2024-01-30T06:45:41;1.30;99.90
6363;DHT22;3214;49.932;8.494;2024-01-30T06:48:54;1.30;99.90
6363;DHT22;3214;49.932;8.494;2024-01-30T06:52:02;1.50;99.90
6363;DHT22;3214;49.932;8.494;2024-01-30T07:01:56;1.60;99.90
6363;DHT22;3214;49.932;8.494;2024-01-30T07:05:00;1.50;99.90
6363;DHT22;3214;49.932;8.494;2024-01-30T07:08:26;1.40;99.90
6363;DHT22;3214;49.932;8.494;2024-01-30T07:43:07;1.40;99.90
6363;DHT22;3214;49.932;8.494;2024-01-30T07:46:13;1.50;99.90
6363;DHT22;3214;49.932;8.494;2024-01-30T07:48:47;1.50;99.90
6363;DHT22;3214;49.932;8.494;2024-01-30T07:51:38;1.60;99.90
6363;DHT22;3214;49.932;8.494;2024-01-30T07:55:14;1.60;99.90
6363;DHT22;3214;49.932;8.494;2024-01-30T08:04:21;1.80;99.90
6363;DHT22;3214;49.932;8.494;2024-01-30T08:07:18;1.80;99.90
6363;DHT22;3214;49.932;8.494;2024-01-30T08:10:27;1.90;99.90
6363;DHT22;3214;49.932;8.494;2024-01-30T08:16:22;1.90;99.90
6363;DHT22;3214;49.932;8.494;2024-01-30T08:22:57;2.10;99.90
6363;DHT22;3214;49.932;8.494;2024-01-30T08:26:11;2.10;99.90
6363;DHT22;3214;49.932;8.494;2024-01-30T08:29:19;2.20;99.90
6363;DHT22;3214;49.932;8.494;2024-01-30T08:32:25;2.20;99.90
6363;DHT22;3214;49.932;8.494;2024-01-30T08:38:39;2.40;99.90
6363;DHT22;3214;49.932;8.494;2024-01-30T08:45:27;2.60;99.90
6363;DHT22;3214;49.932;8.494;2024-01-30T08:48:22;2.60;99.90
6363;DHT22;3214;49.932;8.494;2024-01-30T08:51:23;2.60;99.90
6363;DHT22;3214;49.932;8.494;2024-01-30T08:58:03;2.60;99.90
6363;DHT22;3214;49.932;8.494;2024-01-30T09:01:30;2.50;99.90
6363;DHT22;3214;49.932;8.494;2024-01-30T09:04:46;2.70;99.90
6363;DHT22;3214;49.932;8.494;2024-01-30T09:07:32;2.80;99.90
6363;DHT22;3214;49.932;8.494;2024-01-30T09:24:12;2.80;99.90
6363;DHT22;3214;49.932;8.494;2024-01-30T09:27:19;2.80;99.90
6363;DHT22;3214;49.932;8.494;2024-01-30T09:30:48;2.90;99.90
6363;DHT22;3214;49.932;8.494;2024-01-30T09:33:52;3.00;99.90
6363;DHT22;3214;49.932;8.494;2024-01-30T09:37:13;3.20;99.90
6363;DHT22;3214;49.932;8.494;2024-01-30T09:40:49;3.30;99.90
6363;DHT22;3214;49.932;8.494;2024-01-30T09:47:13;3.70;99.90
6363;DHT22;3214;49.932;8.494;2024-01-30T09:50:01;3.90;99.90
6363;DHT22;3214;49.932;8.494;2024-01-30T09:52:58;4.10;99.90
6363;DHT22;3214;49.932;8.494;2024-01-30T09:59:02;4.30;99.90
6363;DHT22;3214;49.932;8.494;2024-01-30T10:02:11;4.40;99.90
6363;DHT22;3214;49.932;8.494;2024-01-30T10:05:17;4.60;99.90
6363;DHT22;3214;49.932;8.494;2024-01-30T10:08:45;4.60;99.90
6363;DHT22;3214;49.932;8.494;2024-01-30T10:14:56;4.70;99.90
6363;DHT22;3214;49.932;8.494;2024-01-30T10:37:46;5.00;99.90
6363;DHT22;3214;49.932;8.494;2024-01-30T10:40:47;5.10;99.90
6363;DHT22;3214;49.932;8.494;2024-01-30T10:44:02;5.20;99.90
6363;DHT22;3214;49.932;8.494;2024-01-30T10:47:03;5.30;99.90
6363;DHT22;3214;49.932;8.494;2024-01-30T10:50:14;5.40;99.90
6363;DHT22;3214;49.932;8.494;2024-01-30T10:59:34;5.60;99.90
6363;DHT22;3214;49.932;8.494;2024-01-30T11:02:23;5.80;99.90
6363;DHT22;3214;49.932;8.494;2024-01-30T11:05:23;5.90;99.90
6363;DHT22;3214;49.932;8.494;2024-01-30T11:08:41;6.20;99.90
6363;DHT22;3214;49.932;8.494;2024-01-30T11:15:02;6.40;99.90
6363;DHT22;3214;49.932;8.494;2024-01-30T11:21:08;6.40;99.90
6363;DHT22;3214;49.932;8.494;2024-01-30T11:24:36;6.50;99.90
6363;DHT22;3214;49.932;8.494;2024-01-30T11:27:30;6.70;99.90
6363;DHT22;3214;49.932;8.494;2024-01-30T11:37:11;6.80;99.90
6363;DHT22;3214;49.932;8.494;2024-01-30T11:40:19;6.80;99.90
6363;DHT22;3214;49.932;8.494;2024-01-30T11:56:50;6.80;99.90
6363;DHT22;3214;49.932;8.494;2024-01-30T12:03:07;6.80;99.90
6363;DHT22;3214;49.932;8.494;2024-01-30T12:09:30;6.90;99.90
6363;DHT22;3214;49.932;8.494;2024-01-30T12:12:33;7.00;99.90
6363;DHT22;3214;49.932;8.494;2024-01-30T12:15:24;7.00;99.90
6363;DHT22;3214;49.932;8.494;2024-01-30T12:18:45;7.10;99.90
6363;DHT22;3214;49.932;8.494;2024-01-30T12:34:47;7.70;99.90
6363;DHT22;3214;49.932;8.494;2024-01-30T12:38:17;7.90;99.90
6363;DHT22;3214;49.932;8.494;2024-01-30T12:44:58;8.00;99.90
6363;DHT22;3214;49.932;8.494;2024-01-30T12:47:59;8.00;99.90
6363;DHT22;3214;49.932;8.494;2024-01-30T12:51:03;8.20;99.90
6363;DHT22;3214;49.932;8.494;2024-01-30T12:57:21;8.30;99.90
6363;DHT22;3214;49.932;8.494;2024-01-30T13:18:54;9.00;99.90
6363;DHT22;3214;49.932;8.494;2024-01-30T13:20:59;9.10;99.90
6363;DHT22;3214;49.932;8.494;2024-01-30T13:24:02;9.00;99.90
6363;DHT22;3214;49.932;8.494;2024-01-30T13:27:01;9.00;99.90
6363;DHT22;3214;49.932;8.494;2024-01-30T13:29:42;8.90;99.90
6363;DHT22;3214;49.932;8.494;2024-01-30T13:36:02;8.80;99.90
6363;DHT22;3214;49.932;8.494;2024-01-30T13:39:08;8.70;99.90
6363;DHT22;3214;49.932;8.494;2024-01-30T14:17:52;9.10;99.90
6363;DHT22;3214;49.932;8.494;2024-01-30T14:20:47;9.00;99.90
6363;DHT22;3214;49.932;8.494;2024-01-30T14:24:07;9.00;99.90
6363;DHT22;3214;49.932;8.494;2024-01-30T14:26:44;9.10;99.90
6363;DHT22;3214;49.932;8.494;2024-01-30T14:29:31;9.10;99.90
6363;DHT22;3214;49.932;8.494;2024-01-30T14:36:18;9.10;99.90
6363;DHT22;3214;49.932;8.494;2024-01-30T14:38:58;9.00;99.90
6363;DHT22;3214;49.932;8.494;2024-01-30T14:41:50;9.00;99.90
6363;DHT22;3214;49.932;8.494;2024-01-30T14:44:34;8.90;99.90
6363;DHT22;3214;49.932;8.494;2024-01-30T14:48:35;8.90;99.90
6363;DHT22;3214;49.932;8.494;2024-01-30T14:50:52;8.90;99.90
6363;DHT22;3214;49.932;8.494;2024-01-30T14:57:06;8.80;99.90
6363;DHT22;3214;49.932;8.494;2024-01-30T15:00:18;8.80;99.90
6363;DHT22;3214;49.932;8.494;2024-01-30T15:03:13;8.80;99.90
6363;DHT22;3214;49.932;8.494;2024-01-30T15:09:50;8.80;99.90
6363;DHT22;3214;49.932;8.494;2024-01-30T15:19:33;8.70;99.90
6363;DHT22;3214;49.932;8.494;2024-01-30T15:22:21;8.70;99.90
6363;DHT22;3214;49.932;8.494;2024-01-30T15:25:18;8.70;99.90
6363;DHT22;3214;49.932;8.494;2024-01-30T15:28:06;8.70;99.90
6363;DHT22;3214;49.932;8.494;2024-01-30T15:30:56;8.70;99.90
6363;DHT22;3214;49.932;8.494;2024-01-30T15:36:52;8.70;99.90
6363;DHT22;3214;49.932;8.494;2024-01-30T15:46:04;8.60;99.90
6363;DHT22;3214;49.932;8.494;2024-01-30T15:49:00;8.50;99.90
6363;DHT22;3214;49.932;8.494;2024-01-30T15:51:56;8.50;99.90
6363;DHT22;3214;49.932;8.494;2024-01-30T15:55:01;8.50;99.90
6363;DHT22;3214;49.932;8.494;2024-01-30T15:57:49;8.50;99.90
6363;DHT22;3214;49.932;8.494;2024-01-30T16:00:33;8.40;99.90
6363;DHT22;3214;49.932;8.494;2024-01-30T16:03:20;8.40;99.90
6363;DHT22;3214;49.932;8.494;2024-01-30T16:05:54;8.40;99.90
6363;DHT22;3214;49.932;8.494;2024-01-30T16:08:24;8.40;99.90
6363;DHT22;3214;49.932;8.494;2024-01-30T16:11:04;8.30;99.90
6363;DHT22;3214;49.932;8.494;2024-01-30T16:13:31;8.30;99.90
6363;DHT22;3214;49.932;8.494;2024-01-30T16:15:58;8.30;99.90
6363;DHT22;3214;49.932;8.494;2024-01-30T16:18:56;8.20;99.90
6363;DHT22;3214;49.932;8.494;2024-01-30T16:21:59;8.20;99.90
6363;DHT22;3214;49.932;8.494;2024-01-30T16:24:47;8.20;99.90
6363;DHT22;3214;49.932;8.494;2024-01-30T16:27:55;8.20;99.90
6363;DHT22;3214;49.932;8.494;2024-01-30T16:30:39;8.10;99.90
6363;DHT22;3214;49.932;8.494;2024-01-30T16:33:16;8.10;99.90
6363;DHT22;3214;49.932;8.494;2024-01-30T16:35:55;8.10;99.90
6363;DHT22;3214;49.932;8.494;2024-01-30T16:38:28;8.00;99.90
6363;DHT22;3214;49.932;8.494;2024-01-30T16:41:13;8.00;99.90
6363;DHT22;3214;49.932;8.494;2024-01-30T16:43:51;8.00;99.90
6363;DHT22;3214;49.932;8.494;2024-01-30T16:46:36;8.00;99.90
6363;DHT22;3214;49.932;8.494;2024-01-30T16:49:16;7.90;99.90
6363;DHT22;3214;49.932;8.494;2024-01-30T16:52:21;7.90;99.90
6363;DHT22;3214;49.932;8.494;2024-01-30T16:57:50;7.90;99.90
6363;DHT22;3214;49.932;8.494;2024-01-30T17:00:28;7.90;99.90
6363;DHT22;3214;49.932;8.494;2024-01-30T17:03:14;7.90;99.90
6363;DHT22;3214;49.932;8.494;2024-01-30T17:06:02;7.90;99.90
6363;DHT22;3214;49.932;8.494;2024-01-30T17:11:50;7.90;99.90
6363;DHT22;3214;49.932;8.494;2024-01-30T17:14:22;7.90;99.90
6363;DHT22;3214;49.932;8.494;2024-01-30T17:16:54;7.90;99.90
6363;DHT22;3214;49.932;8.494;2024-01-30T17:19:42;7.90;99.90
6363;DHT22;3214;49.932;8.494;2024-01-30T17:22:31;7.80;99.90
6363;DHT22;3214;49.932;8.494;2024-01-30T17:25:30;7.90;99.90
6363;DHT22;3214;49.932;8.494;2024-01-30T17:31:12;7.80;99.90
6363;DHT22;3214;49.932;8.494;2024-01-30T17:40:16;7.80;99.90
6363;DHT22;3214;49.932;8.494;2024-01-30T17:43:54;7.80;99.90
6363;DHT22;3214;49.932;8.494;2024-01-30T17:49:48;7.70;99.90
6363;DHT22;3214;49.932;8.494;2024-01-30T17:52:29;7.70;99.90
6363;DHT22;3214;49.932;8.494;2024-01-30T17:55:05;7.60;99.90
6363;DHT22;3214;49.932;8.494;2024-01-30T17:57:33;7.60;99.90
6363;DHT22;3214;49.932;8.494;2024-01-30T18:00:13;7.60;99.90
6363;DHT22;3214;49.932;8.494;2024-01-30T18:03:01;7.60;99.90
6363;DHT22;3214;49.932;8.494;2024-01-30T18:05:33;7.60;99.90
6363;DHT22;3214;49.932;8.494;2024-01-30T18:08:01;7.60;99.90
6363;DHT22;3214;49.932;8.494;2024-01-30T18:10:31;7.50;99.90
6363;DHT22;3214;49.932;8.494;2024-01-30T18:13:01;7.50;99.90
6363;DHT22;3214;49.932;8.494;2024-01-30T18:15:40;7.50;99.90
6363;DHT22;3214;49.932;8.494;2024-01-30T18:18:17;7.50;99.90
6363;DHT22;3214;49.932;8.494;2024-01-30T18:20:48;7.50;99.90
6363;DHT22;3214;49.932;8.494;2024-01-30T18:23:30;7.50;99.90
6363;DHT22;3214;49.932;8.494;2024-01-30T18:26:02;7.50;99.90
6363;DHT22;3214;49.932;8.494;2024-01-30T18:28:34;7.50;99.90
6363;DHT22;3214;49.932;8.494;2024-01-30T18:31:03;7.60;99.90
6363;DHT22;3214;49.932;8.494;2024-01-30T18:33:31;7.60;99.90
6363;DHT22;3214;49.932;8.494;2024-01-30T18:36:02;7.60;99.90
6363;DHT22;3214;49.932;8.494;2024-01-30T18:38:39;7.60;99.90
6363;DHT22;3214;49.932;8.494;2024-01-30T18:41:22;7.60;99.90
6363;DHT22;3214;49.932;8.494;2024-01-30T18:44:18;7.60;99.90
6363;DHT22;3214;49.932;8.494;2024-01-30T18:46:58;7.70;99.90
6363;DHT22;3214;49.932;8.494;2024-01-30T18:49:31;7.70;99.90
6363;DHT22;3214;49.932;8.494;2024-01-30T18:52:05;7.80;99.90
6363;DHT22;3214;49.932;8.494;2024-01-30T18:54:55;7.80;99.90
6363;DHT22;3214;49.932;8.494;2024-01-30T19:01:15;7.80;99.90
6363;DHT22;3214;49.932;8.494;2024-01-30T19:03:56;7.80;99.90
6363;DHT22;3214;49.932;8.494;2024-01-30T19:06:41;7.70;99.90
6363;DHT22;3214;49.932;8.494;2024-01-30T19:09:20;7.70;99.90
6363;DHT22;3214;49.932;8.494;2024-01-30T19:11:57;7.70;99.90
6363;DHT22;3214;49.932;8.494;2024-01-30T19:14:30;7.70;99.90
6363;DHT22;3214;49.932;8.494;2024-01-30T19:17:07;7.70;99.90
6363;DHT22;3214;49.932;8.494;2024-01-30T19:19:49;7.80;99.90
6363;DHT22;3214;49.932;8.494;2024-01-30T19:22:25;7.80;99.90
6363;DHT22;3214;49.932;8.494;2024-01-30T19:25:01;7.90;99.90
6363;DHT22;3214;49.932;8.494;2024-01-30T19:27:45;8.00;99.90
6363;DHT22;3214;49.932;8.494;2024-01-30T19:30:18;8.10;99.90
6363;DHT22;3214;49.932;8.494;2024-01-30T19:33:03;8.30;99.90
6363;DHT22;3214;49.932;8.494;2024-01-30T19:36:01;8.30;99.90
6363;DHT22;3214;49.932;8.494;2024-01-30T19:38:40;8.40;99.90
6363;DHT22;3214;49.932;8.494;2024-01-30T19:41:14;8.40;99.90
6363;DHT22;3214;49.932;8.494;2024-01-30T19:43:44;8.50;99.90
6363;DHT22;3214;49.932;8.494;2024-01-30T19:46:19;8.50;99.90
6363;DHT22;3214;49.932;8.494;2024-01-30T19:49:01;8.50;99.90
6363;DHT22;3214;49.932;8.494;2024-01-30T19:51:32;8.50;99.90
6363;DHT22;3214;49.932;8.494;2024-01-30T19:54:00;8.60;99.90
6363;DHT22;3214;49.932;8.494;2024-01-30T19:56:33;8.50;99.90
6363;DHT22;3214;49.932;8.494;2024-01-30T19:59:05;8.60;99.90
6363;DHT22;3214;49.932;8.494;2024-01-30T20:01:41;8.50;99.90
6363;DHT22;3214;49.932;8.494;2024-01-30T20:04:11;8.50;99.90
6363;DHT22;3214;49.932;8.494;2024-01-30T20:06:45;8.50;99.90
6363;DHT22;3214;49.932;8.494;2024-01-30T20:09:13;8.50;99.90
6363;DHT22;3214;49.932;8.494;2024-01-30T20:11:40;8.60;99.90
6363;DHT22;3214;49.932;8.494;2024-01-30T20:14:09;8.60;99.90
6363;DHT22;3214;49.932;8.494;2024-01-30T20:16:39;8.60;99.90
6363;DHT22;3214;49.932;8.494;2024-01-30T20:19:10;8.60;99.90
6363;DHT22;3214;49.932;8.494;2024-01-30T20:21:43;8.60;99.90
6363;DHT22;3214;49.932;8.494;2024-01-30T20:24:13;8.60;99.90
6363;DHT22;3214;49.932;8.494;2024-01-30T20:26:43;8.60;99.90
6363;DHT22;3214;49.932;8.494;2024-01-30T20:29:10;8.60;99.90
6363;DHT22;3214;49.932;8.494;2024-01-30T20:31:39;8.70;99.90
6363;DHT22;3214;49.932;8.494;2024-01-30T20:34:06;8.70;99.90
6363;DHT22;3214;49.932;8.494;2024-01-30T20:36:37;8.80;99.90
6363;DHT22;3214;49.932;8.494;2024-01-30T20:39:14;8.80;99.90
6363;DHT22;3214;49.932;8.494;2024-01-30T20:42:01;8.80;99.90
6363;DHT22;3214;49.932;8.494;2024-01-30T20:44:37;8.80;99.90
6363;DHT22;3214;49.932;8.494;2024-01-30T20:47:16;8.80;99.90
6363;DHT22;3214;49.932;8.494;2024-01-30T20:49:46;8.80;99.90
6363;DHT22;3214;49.932;8.494;2024-01-30T20:52:20;8.90;99.90
6363;DHT22;3214;49.932;8.494;2024-01-30T20:54:57;8.80;99.90
6363;DHT22;3214;49.932;8.494;2024-01-30T21:00:20;8.80;99.90
6363;DHT22;3214;49.932;8.494;2024-01-30T21:02:53;8.80;99.90
6363;DHT22;3214;49.932;8.494;2024-01-30T21:05:31;8.70;99.90
6363;DHT22;3214;49.932;8.494;2024-01-30T21:08:11;8.70;99.90
6363;DHT22;3214;49.932;8.494;2024-01-30T21:10:51;8.80;99.90
6363;DHT22;3214;49.932;8.494;2024-01-30T21:13:20;8.70;99.90
6363;DHT22;3214;49.932;8.494;2024-01-30T21:16:09;8.80;99.90
6363;DHT22;3214;49.932;8.494;2024-01-30T21:18:47;8.80;99.90
6363;DHT22;3214;49.932;8.494;2024-01-30T21:21:32;8.80;99.90
6363;DHT22;3214;49.932;8.494;2024-01-30T21:24:16;8.90;99.90
6363;DHT22;3214;49.932;8.494;2024-01-30T21:26:55;9.00;99.90
6363;DHT22;3214;49.932;8.494;2024-01-30T21:29:24;9.00;99.90
6363;DHT22;3214;49.932;8.494;2024-01-30T21:32:03;8.90;99.90
6363;DHT22;3214;49.932;8.494;2024-01-30T21:34:35;8.80;99.90
6363;DHT22;3214;49.932;8.494;2024-01-30T21:37:06;8.80;99.90
6363;DHT22;3214;49.932;8.494;2024-01-30T21:39:53;8.70;99.90
6363;DHT22;3214;49.932;8.494;2024-01-30T21:42:23;8.70;99.90
6363;DHT22;3214;49.932;8.494;2024-01-30T21:45:09;8.70;99.90
6363;DHT22;3214;49.932;8.494;2024-01-30T21:47:43;8.70;99.90
6363;DHT22;3214;49.932;8.494;2024-01-30T21:50:21;8.70;99.90
6363;DHT22;3214;49.932;8.494;2024-01-30T21:52:50;8.60;99.90
6363;DHT22;3214;49.932;8.494;2024-01-30T21:55:29;8.50;99.90
6363;DHT22;3214;49.932;8.494;2024-01-30T21:58:23;8.50;99.90
6363;DHT22;3214;49.932;8.494;2024-01-30T22:00:58;8.40;99.90
6363;DHT22;3214;49.932;8.494;2024-01-30T22:03:53;8.40;99.90
6363;DHT22;3214;49.932;8.494;2024-01-30T22:06:30;8.40;99.90
6363;DHT22;3214;49.932;8.494;2024-01-30T22:09:02;8.30;99.90
6363;DHT22;3214;49.932;8.494;2024-01-30T22:11:55;8.30;99.90
6363;DHT22;3214;49.932;8.494;2024-01-30T22:14:39;8.30;99.90
6363;DHT22;3214;49.932;8.494;2024-01-30T22:17:10;8.20;99.90
6363;DHT22;3214;49.932;8.494;2024-01-30T22:19:38;8.30;99.90
6363;DHT22;3214;49.932;8.494;2024-01-30T22:22:11;8.40;99.90
6363;DHT22;3214;49.932;8.494;2024-01-30T22:24:38;8.20;99.90
6363;DHT22;3214;49.932;8.494;2024-01-30T22:27:09;8.20;99.90
6363;DHT22;3214;49.932;8.494;2024-01-30T22:29:43;8.20;99.90
6363;DHT22;3214;49.932;8.494;2024-01-30T22:32:13;8.20;99.90
6363;DHT22;3214;49.932;8.494;2024-01-30T22:34:53;8.20;99.90
6363;DHT22;3214;49.932;8.494;2024-01-30T22:37:21;8.10;99.90
6363;DHT22;3214;49.932;8.494;2024-01-30T22:39:53;8.20;99.90
6363;DHT22;3214;49.932;8.494;2024-01-30T22:42:24;8.10;99.90
6363;DHT22;3214;49.932;8.494;2024-01-30T22:44:57;8.10;99.90
6363;DHT22;3214;49.932;8.494;2024-01-30T22:47:26;8.10;99.90
6363;DHT22;3214;49.932;8.494;2024-01-30T22:49:57;8.10;99.90
6363;DHT22;3214;49.932;8.494;2024-01-30T22:52:25;8.10;99.90
6363;DHT22;3214;49.932;8.494;2024-01-30T22:54:53;8.10;99.90
6363;DHT22;3214;49.932;8.494;2024-01-30T22:57:22;8.20;99.90
6363;DHT22;3214;49.932;8.494;2024-01-30T22:59:50;8.10;99.90
6363;DHT22;3214;49.932;8.494;2024-01-30T23:02:19;8.10;99.90
6363;DHT22;3214;49.932;8.494;2024-01-30T23:04:47;8.10;99.90
6363;DHT22;3214;49.932;8.494;2024-01-30T23:07:16;8.20;99.90
6363;DHT22;3214;49.932;8.494;2024-01-30T23:09:43;8.20;99.90
6363;DHT22;3214;49.932;8.494;2024-01-30T23:12:11;8.20;99.90
6363;DHT22;3214;49.932;8.494;2024-01-30T23:14:38;8.20;99.90
6363;DHT22;3214;49.932;8.494;2024-01-30T23:17:05;8.10;99.90
6363;DHT22;3214;49.932;8.494;2024-01-30T23:19:36;8.20;99.90
6363;DHT22;3214;49.932;8.494;2024-01-30T23:22:03;8.20;99.90
6363;DHT22;3214;49.932;8.494;2024-01-30T23:24:31;8.20;99.90